createdAt,value
2024-04-13T00:01:56.851Z,95015.97
2024-04-13T00:04:25.198Z,95014.03
2024-04-13T00:06:52.170Z,95010.50
2024-04-13T00:09:19.604Z,95009.81
2024-04-13T00:11:46.415Z,95011.00
2024-04-13T00:14:13.193Z,95009.03
2024-04-13T00:16:40.078Z,95007.44
2024-04-13T00:19:06.858Z,95009.22
2024-04-13T00:21:33.604Z,95002.00
2024-04-13T00:24:00.453Z,94993.25
2024-04-13T00:26:28.754Z,94992.78
2024-04-13T00:28:55.611Z,94998.03
2024-04-13T00:31:22.582Z,94991.16
2024-04-13T00:33:49.350Z,94991.66
2024-04-13T00:36:16.355Z,94995.56
2024-04-13T00:38:43.105Z,94985.03
2024-04-13T00:41:09.958Z,94996.69
2024-04-13T00:43:36.831Z,94995.50
2024-04-13T00:46:09.411Z,94990.50
2024-04-13T00:48:38.335Z,94994.63
2024-04-13T00:51:07.098Z,94988.53
2024-04-13T00:53:38.736Z,94990.09
2024-04-13T00:56:10.727Z,94980.81
2024-04-13T00:58:37.939Z,94992.84
2024-04-13T01:01:07.130Z,94995.97
2024-04-13T01:03:36.970Z,94995.16
2024-04-13T01:06:04.841Z,94998.56
2024-04-13T01:08:35.716Z,94996.53
2024-04-13T01:11:02.954Z,94991.47
2024-04-13T01:13:29.961Z,94987.94
2024-04-13T01:16:00.353Z,94991.72
2024-04-13T01:18:27.463Z,94991.22
2024-04-13T01:20:54.330Z,94992.88
2024-04-13T01:23:21.555Z,94990.84
2024-04-13T01:25:48.245Z,94987.19
2024-04-13T01:28:15.905Z,94987.06
2024-04-13T01:30:42.992Z,94989.91
2024-04-13T01:33:10.872Z,94993.31
2024-04-13T01:35:37.832Z,94991.44
2024-04-13T01:38:04.748Z,94991.50
2024-04-13T01:40:31.898Z,94993.00
2024-04-13T01:42:59.447Z,94989.00
2024-04-13T01:45:26.936Z,94989.03
2024-04-13T01:47:53.975Z,94989.09
2024-04-13T01:50:20.930Z,94984.47
2024-04-13T01:52:47.661Z,94990.00
2024-04-13T01:55:14.496Z,94980.66
2024-04-13T01:57:41.254Z,94976.66
2024-04-13T02:00:09.272Z,94984.31
2024-04-13T02:02:36.045Z,94975.47
2024-04-13T02:05:03.328Z,94979.44
2024-04-13T02:07:31.027Z,94975.34
2024-04-13T02:09:57.903Z,94981.03
2024-04-13T02:12:24.760Z,94978.47
2024-04-13T02:14:51.545Z,94974.97
2024-04-13T02:17:18.577Z,94975.41
2024-04-13T02:19:45.432Z,94968.38
2024-04-13T02:22:12.909Z,94976.78
2024-04-13T02:24:40.904Z,94975.72
2024-04-13T02:27:07.912Z,94979.00
2024-04-13T02:29:34.701Z,94974.00
2024-04-13T02:32:01.530Z,94972.06
2024-04-13T02:34:28.494Z,94974.25
2024-04-13T02:36:55.239Z,94971.09
2024-04-13T02:39:23.093Z,94968.66
2024-04-13T02:41:50.231Z,94972.78
2024-04-13T02:44:17.180Z,94973.34
2024-04-13T02:46:44.227Z,94979.25
2024-04-13T02:49:11.459Z,94975.13
2024-04-13T02:51:38.286Z,94976.69
2024-04-13T02:54:06.289Z,94971.00
2024-04-13T02:56:35.262Z,94975.44
2024-04-13T02:59:02.011Z,94976.91
2024-04-13T03:01:28.778Z,94975.94
2024-04-13T03:03:55.569Z,94982.78
2024-04-13T03:06:22.564Z,94982.25
2024-04-13T03:08:51.775Z,94981.56
2024-04-13T03:11:19.482Z,94991.53
2024-04-13T03:13:47.211Z,94977.44
2024-04-13T03:16:14.328Z,94981.31
2024-04-13T03:18:46.118Z,94982.84
2024-04-13T03:21:13.397Z,94979.53
2024-04-13T03:23:41.427Z,94978.34
2024-04-13T03:26:08.458Z,94982.44
2024-04-13T03:28:36.374Z,94980.28
2024-04-13T03:31:04.711Z,94984.47
2024-04-13T03:33:31.723Z,94983.06
2024-04-13T03:36:03.332Z,94976.97
2024-04-13T03:38:30.306Z,94973.56
2024-04-13T03:41:02.096Z,94981.97
2024-04-13T03:43:29.603Z,94980.47
2024-04-13T03:45:56.378Z,94985.63
2024-04-13T03:48:23.311Z,94986.09
2024-04-13T03:50:50.108Z,94995.28
2024-04-13T03:53:16.845Z,94981.53
2024-04-13T03:55:43.557Z,94999.22
2024-04-13T03:58:10.318Z,94994.75
2024-04-13T04:00:37.212Z,95004.09
2024-04-13T04:03:04.220Z,95012.19
2024-04-13T04:05:31.099Z,94999.47
2024-04-13T04:07:57.853Z,95017.22
2024-04-13T04:10:24.670Z,95011.97
2024-04-13T04:12:51.410Z,95015.13
2024-04-13T04:15:18.184Z,95021.47
2024-04-13T04:17:45.068Z,95026.75
2024-04-13T04:20:14.932Z,95022.63
2024-04-13T04:22:41.768Z,95039.44
2024-04-13T04:25:09.424Z,95038.63
2024-04-13T04:27:36.342Z,95038.59
2024-04-13T04:30:03.313Z,95044.91
2024-04-13T04:32:30.140Z,95052.16
2024-04-13T04:34:57.022Z,95054.53
2024-04-13T04:37:23.854Z,95047.75
2024-04-13T04:39:50.672Z,95041.47
2024-04-13T04:42:17.580Z,95051.00
2024-04-13T04:44:44.332Z,95052.59
2024-04-13T04:47:13.265Z,95051.25
2024-04-13T04:49:40.120Z,95053.34
2024-04-13T04:52:07.651Z,95050.69
2024-04-13T04:54:34.719Z,95049.31
2024-04-13T04:57:01.591Z,95043.66
2024-04-13T04:59:28.662Z,95033.09
2024-04-13T05:01:58.112Z,95037.34
2024-04-13T05:04:27.907Z,95036.66
2024-04-13T05:06:55.253Z,95037.53
2024-04-13T05:09:22.113Z,95031.78
2024-04-13T05:11:48.904Z,95042.06
2024-04-13T05:14:18.339Z,95039.47
2024-04-13T05:16:45.322Z,95030.75
2024-04-13T05:19:13.228Z,95031.69
2024-04-13T05:21:40.304Z,95039.09
2024-04-13T05:24:07.167Z,95029.78
2024-04-13T05:26:34.022Z,95037.59
2024-04-13T05:29:00.725Z,95036.09
2024-04-13T05:31:27.516Z,95026.25
2024-04-13T05:33:54.291Z,95034.63
2024-04-13T05:36:21.091Z,95038.06
2024-04-13T05:38:47.814Z,95034.47
2024-04-13T05:55:41.215Z,95048.09
2024-04-13T05:58:09.830Z,95039.44
2024-04-13T06:00:38.849Z,95053.44
2024-04-13T06:03:05.808Z,95048.53
2024-04-13T06:05:32.691Z,95043.09
2024-04-13T06:08:02.046Z,95045.69
2024-04-13T06:10:29.030Z,95053.38
2024-04-13T06:12:55.793Z,95045.13
2024-04-13T06:15:22.603Z,95049.88
2024-04-13T06:17:49.404Z,95053.38
2024-04-13T06:20:16.241Z,95047.09
2024-04-13T06:22:42.923Z,95058.69
2024-04-13T06:25:12.313Z,95057.19
2024-04-13T06:27:40.793Z,95053.94
2024-04-13T06:30:08.730Z,95058.88
2024-04-13T06:32:36.893Z,95062.16
2024-04-13T06:35:04.318Z,95055.25
2024-04-13T06:37:31.436Z,95060.31
2024-04-13T06:39:58.163Z,95063.00
2024-04-13T06:42:24.938Z,95061.88
2024-04-13T06:44:51.673Z,95057.59
2024-04-13T06:47:18.506Z,95049.41
2024-04-13T06:49:47.550Z,95062.53
2024-04-13T06:52:14.318Z,95059.34
2024-04-13T06:54:44.201Z,95051.66
2024-04-13T06:57:11.418Z,95051.47
2024-04-13T06:59:39.300Z,95049.94
2024-04-13T07:02:07.153Z,95043.72
2024-04-13T07:04:34.010Z,95049.97
2024-04-13T07:07:00.866Z,95049.28
2024-04-13T07:09:27.773Z,95040.78
2024-04-13T07:11:57.095Z,95053.00
2024-04-13T07:14:23.853Z,95047.63
2024-04-13T07:16:52.198Z,95052.44
2024-04-13T07:19:19.119Z,95044.75
2024-04-13T07:21:46.221Z,95040.19
2024-04-13T07:24:13.097Z,95039.34
2024-04-13T07:26:39.883Z,95041.94
2024-04-13T07:29:06.674Z,95033.25
2024-04-13T07:31:33.381Z,95035.88
2024-04-13T07:34:00.161Z,95035.59
2024-04-13T07:36:27.043Z,95031.72
2024-04-13T07:38:53.982Z,95041.09
2024-04-13T07:41:20.693Z,95029.38
2024-04-13T07:43:47.465Z,95037.59
2024-04-13T07:46:14.198Z,95039.66
2024-04-13T07:48:41.035Z,95021.97
2024-04-13T07:51:07.855Z,95027.88
2024-04-13T07:53:36.276Z,95020.16
2024-04-13T07:56:03.138Z,95017.03
2024-04-13T07:58:30.004Z,95013.16
2024-04-13T08:00:57.498Z,95011.63
2024-04-13T08:03:25.145Z,95016.31
2024-04-13T08:05:52.001Z,95009.63
2024-04-13T08:08:19.610Z,95012.41
2024-04-13T08:10:46.675Z,95012.41
2024-04-13T08:13:13.578Z,95008.78
2024-04-13T08:15:40.994Z,95008.91
2024-04-13T08:18:08.260Z,95008.09
2024-04-13T08:20:35.384Z,95013.53
2024-04-13T08:23:03.077Z,95007.38
2024-04-13T08:25:30.368Z,95005.34
2024-04-13T08:27:57.210Z,95001.78
2024-04-13T08:30:24.219Z,94997.59
2024-04-13T08:32:51.318Z,94994.47
2024-04-13T08:35:18.530Z,95002.94
2024-04-13T08:37:48.453Z,94991.00
2024-04-13T08:40:15.360Z,94993.34
2024-04-13T08:42:43.022Z,94992.22
2024-04-13T08:45:11.189Z,94986.88
2024-04-13T08:47:42.443Z,94988.16
2024-04-13T08:50:12.387Z,94985.00
2024-04-13T08:52:40.684Z,94986.31
2024-04-13T08:55:07.855Z,94988.94
2024-04-13T08:57:38.129Z,94981.00
2024-04-13T09:00:14.404Z,94980.88
2024-04-13T09:02:45.409Z,94970.56
2024-04-13T09:05:13.039Z,94970.56
2024-04-13T09:07:40.211Z,94987.59
2024-04-13T09:10:07.283Z,94966.34
2024-04-13T09:12:34.409Z,94970.88
2024-04-13T09:15:02.181Z,94964.69
2024-04-13T09:17:33.061Z,94974.22
2024-04-13T09:20:08.311Z,94969.41
2024-04-13T09:22:40.346Z,94975.50
2024-04-13T09:25:09.513Z,94968.81
2024-04-13T09:27:36.551Z,94966.28
2024-04-13T09:30:14.753Z,94958.63
2024-04-13T09:32:42.042Z,94968.31
2024-04-13T09:35:12.422Z,94953.16
2024-04-13T09:37:40.250Z,94967.75
2024-04-13T09:40:08.276Z,94961.75
2024-04-13T09:42:35.203Z,94953.72
2024-04-13T09:45:08.414Z,94949.44
2024-04-13T09:47:35.439Z,94952.09
2024-04-13T09:50:02.448Z,94947.75
2024-04-13T09:52:29.642Z,94942.63
2024-04-13T09:54:58.883Z,94942.44
2024-04-13T09:57:26.031Z,94938.53
2024-04-13T09:59:53.945Z,94942.50
2024-04-13T10:02:21.371Z,94939.25
2024-04-13T10:04:48.934Z,94929.72
2024-04-13T10:07:16.298Z,94947.09
2024-04-13T10:09:48.061Z,94940.41
2024-04-13T10:12:20.222Z,94939.31
2024-04-13T10:14:49.009Z,94943.81
2024-04-13T10:17:16.757Z,94934.22
2024-04-13T10:19:45.890Z,94931.19
2024-04-13T10:22:23.898Z,94935.88
2024-04-13T10:25:04.837Z,94935.22
2024-04-13T10:27:34.997Z,94913.13
2024-04-13T10:30:02.758Z,94926.44
2024-04-13T10:32:29.583Z,94917.78
2024-04-13T10:35:07.073Z,94902.22
2024-04-13T10:37:36.542Z,94906.28
2024-04-13T10:40:05.980Z,94901.56
2024-04-13T10:42:40.817Z,94894.28
2024-04-13T10:45:16.064Z,94905.84
2024-04-13T10:47:44.009Z,94891.13
2024-04-13T10:50:15.875Z,94888.13
2024-04-13T10:52:43.568Z,94883.44
2024-04-13T10:55:14.969Z,94896.38
2024-04-13T10:57:44.720Z,94885.28
2024-04-13T11:00:12.121Z,94880.03
2024-04-13T11:02:40.067Z,94871.19
2024-04-13T11:05:07.765Z,94865.38
2024-04-13T11:07:36.343Z,94867.03
2024-04-13T11:10:04.845Z,94858.31
2024-04-13T11:12:31.923Z,94865.91
2024-04-13T11:14:58.979Z,94867.47
2024-04-13T11:17:25.833Z,94867.38
2024-04-13T11:19:52.750Z,94859.75
2024-04-13T11:22:21.223Z,94846.03
2024-04-13T11:24:48.400Z,94845.19
2024-04-13T11:27:17.191Z,94859.72
2024-04-13T11:29:44.292Z,94853.97
2024-04-13T11:32:11.618Z,94859.41
2024-04-13T11:34:40.208Z,94852.38
2024-04-13T11:37:07.140Z,94863.03
2024-04-13T11:39:35.148Z,94861.03
2024-04-13T11:42:06.279Z,94857.09
2024-04-13T11:44:33.487Z,94861.28
2024-04-13T11:47:01.376Z,94874.84
2024-04-13T11:49:32.359Z,94890.59
2024-04-13T11:52:00.348Z,94917.41
2024-04-13T11:54:29.010Z,94941.63
2024-04-13T11:56:56.352Z,94946.00
2024-04-13T11:59:23.099Z,94929.19
2024-04-13T12:01:50.080Z,94927.41
2024-04-13T12:04:17.056Z,94923.91
2024-04-13T12:06:44.018Z,94923.34
2024-04-13T12:09:11.303Z,94933.84
2024-04-13T12:11:38.044Z,94939.88
2024-04-13T12:14:05.725Z,94942.56
2024-04-13T12:16:32.599Z,94908.81
2024-04-13T12:18:59.403Z,94905.69
2024-04-13T12:21:26.303Z,94916.50
2024-04-13T12:23:53.009Z,94909.19
2024-04-13T12:26:21.120Z,94888.22
2024-04-13T12:28:48.226Z,94864.56
2024-04-13T12:31:16.205Z,94853.28
2024-04-13T12:33:46.289Z,94837.72
2024-04-13T12:36:13.125Z,94840.94
2024-04-13T12:38:40.021Z,94835.00
2024-04-13T12:41:06.796Z,94836.63
2024-04-13T12:43:33.539Z,94847.44
2024-04-13T12:46:00.560Z,94838.63
2024-04-13T12:48:27.603Z,94839.31
2024-04-13T12:50:54.462Z,94851.75
2024-04-13T12:53:21.392Z,94849.97
2024-04-13T12:55:48.326Z,94855.66
2024-04-13T12:58:15.132Z,94854.13
2024-04-13T13:00:41.920Z,94853.03
2024-04-13T13:03:09.981Z,94853.31
2024-04-13T13:05:36.999Z,94851.03
2024-04-13T13:08:03.901Z,94841.00
2024-04-13T13:10:30.798Z,94823.13
2024-04-13T13:12:57.531Z,94818.94
2024-04-13T13:15:24.352Z,94813.44
2024-04-13T13:17:51.269Z,94814.19
2024-04-13T13:20:17.999Z,94806.72
2024-04-13T13:22:45.340Z,94808.50
2024-04-13T13:25:12.920Z,94810.84
2024-04-13T13:27:39.675Z,94816.13
2024-04-13T13:30:06.952Z,94818.91
2024-04-13T13:32:34.065Z,94814.19
2024-04-13T13:35:01.822Z,94820.75
2024-04-13T13:37:28.727Z,94821.34
2024-04-13T13:39:55.534Z,94822.78
2024-04-13T13:42:22.288Z,94820.22
2024-04-13T13:44:49.280Z,94814.44
2024-04-13T13:47:16.125Z,94808.09
2024-04-13T13:49:42.860Z,94819.41
2024-04-13T13:52:09.583Z,94811.22
2024-04-13T13:54:36.345Z,94801.41
2024-04-13T13:57:03.190Z,94800.00
2024-04-13T13:59:29.901Z,94799.44
2024-04-13T14:01:56.933Z,94801.03
2024-04-13T14:04:23.811Z,94795.53
2024-04-13T14:06:50.654Z,94797.78
2024-04-13T14:09:17.453Z,94789.88
2024-04-13T14:11:44.303Z,94789.50
2024-04-13T14:14:11.077Z,94785.22
2024-04-13T14:16:38.386Z,94784.97
2024-04-13T14:19:05.164Z,94770.44
2024-04-13T14:21:32.086Z,94774.84
2024-04-13T14:23:58.881Z,94774.44
2024-04-13T14:26:25.677Z,94768.28
2024-04-13T14:28:52.403Z,94770.81
2024-04-13T14:31:20.051Z,94762.53
2024-04-13T14:33:46.859Z,94761.34
2024-04-13T14:36:14.882Z,94754.94
2024-04-13T14:38:41.658Z,94750.09
2024-04-13T14:41:08.386Z,94745.75
2024-04-13T14:43:35.186Z,94741.75
2024-04-13T14:46:01.999Z,94745.34
2024-04-13T14:48:29.174Z,94743.84
2024-04-13T14:50:56.102Z,94733.38
2024-04-13T14:53:23.946Z,94732.44
2024-04-13T14:55:51.697Z,94734.72
2024-04-13T14:58:18.692Z,94731.41
2024-04-13T15:00:46.526Z,94738.13
2024-04-13T15:03:15.899Z,94725.97
2024-04-13T15:05:43.317Z,94723.31
2024-04-13T15:08:10.112Z,94718.13
2024-04-13T15:10:38.514Z,94715.72
2024-04-13T15:13:05.518Z,94709.56
2024-04-13T15:15:32.362Z,94709.59
2024-04-13T15:17:59.317Z,94718.22
2024-04-13T15:20:26.173Z,94715.00
2024-04-13T15:22:52.951Z,94722.28
2024-04-13T15:25:19.678Z,94723.75
2024-04-13T15:27:46.548Z,94729.03
2024-04-13T15:30:13.319Z,94718.56
2024-04-13T15:32:40.404Z,94724.53
2024-04-13T15:35:07.261Z,94728.16
2024-04-13T15:37:34.020Z,94727.22
2024-04-13T15:40:00.889Z,94728.66
2024-04-13T15:42:28.771Z,94731.25
2024-04-13T15:44:55.877Z,94727.91
2024-04-13T15:47:22.812Z,94722.63
2024-04-13T15:49:49.547Z,94726.13
2024-04-13T15:52:16.664Z,94727.88
2024-04-13T15:54:47.810Z,94715.81
2024-04-13T15:57:15.099Z,94717.81
2024-04-13T15:59:45.353Z,94720.97
2024-04-13T16:02:12.247Z,94722.69
2024-04-13T16:04:39.334Z,94719.78
2024-04-13T16:07:06.056Z,94727.00
2024-04-13T16:09:32.875Z,94720.78
2024-04-13T16:11:59.617Z,94737.09
2024-04-13T16:14:26.326Z,94731.88
2024-04-13T16:16:53.064Z,94728.94
2024-04-13T16:19:22.246Z,94727.53
2024-04-13T16:21:49.154Z,94730.13
2024-04-13T16:24:16.212Z,94724.38
2024-04-13T16:26:42.924Z,94731.91
2024-04-13T16:29:11.611Z,94728.56
2024-04-13T16:31:38.315Z,94737.88
2024-04-13T16:34:05.439Z,94736.56
2024-04-13T16:36:32.241Z,94745.41
2024-04-13T16:38:58.947Z,94742.34
2024-04-13T16:41:25.664Z,94746.63
2024-04-13T16:43:52.471Z,94742.09
2024-04-13T16:46:19.492Z,94748.31
2024-04-13T16:48:49.171Z,94751.44
2024-04-13T16:51:16.314Z,94756.75
2024-04-13T16:53:43.062Z,94757.34
2024-04-13T16:56:09.863Z,94767.06
2024-04-13T16:58:36.630Z,94760.34
2024-04-13T17:01:03.623Z,94758.25
2024-04-13T17:03:30.612Z,94762.97
2024-04-13T17:05:57.316Z,94759.44
2024-04-13T17:08:26.891Z,94770.56
2024-04-13T17:10:53.938Z,94778.25
2024-04-13T17:13:20.754Z,94783.19
2024-04-13T17:15:47.490Z,94784.75
2024-04-13T17:18:14.359Z,94786.63
2024-04-13T17:20:41.158Z,94794.00
2024-04-13T17:23:08.153Z,94790.56
2024-04-13T17:25:34.905Z,94797.44
2024-04-13T17:28:01.794Z,94809.41
2024-04-13T17:30:28.877Z,94808.56
2024-04-13T17:32:55.680Z,94817.16
2024-04-13T17:35:22.548Z,94816.69
2024-04-13T17:37:49.275Z,94818.91
2024-04-13T17:40:16.136Z,94823.75
2024-04-13T17:42:42.986Z,94821.81
2024-04-13T17:45:10.674Z,94827.31
2024-04-13T17:47:37.786Z,94830.41
2024-04-13T17:50:05.130Z,94837.66
2024-04-13T17:52:31.982Z,94841.19
2024-04-13T17:54:58.763Z,94843.41
2024-04-13T17:57:27.479Z,94857.25
2024-04-13T17:59:54.280Z,94859.84
2024-04-13T18:02:21.210Z,94862.03
2024-04-13T18:04:48.077Z,94868.13
2024-04-13T18:07:14.944Z,94873.09
2024-04-13T18:09:41.846Z,94873.50
2024-04-13T18:12:08.976Z,94888.09
2024-04-13T18:14:38.485Z,94884.72
2024-04-13T18:17:05.262Z,94890.78
2024-04-13T18:19:32.102Z,94892.00
2024-04-13T18:21:58.935Z,94893.03
2024-04-13T18:24:25.694Z,94893.13
2024-04-13T18:26:54.074Z,94898.22
2024-04-13T18:29:22.685Z,94903.19
2024-04-13T18:31:49.550Z,94906.25
2024-04-13T18:34:16.323Z,94908.34
2024-04-13T18:36:43.190Z,94909.75
2024-04-13T18:39:10.061Z,94913.09
2024-04-13T18:41:38.442Z,94910.06
2024-04-13T18:44:06.975Z,94906.97
2024-04-13T18:46:35.198Z,94904.63
2024-04-13T18:49:01.982Z,94907.25
2024-04-13T18:51:29.044Z,94907.13
2024-04-13T18:53:55.890Z,94911.22
2024-04-13T18:56:22.680Z,94912.88
2024-04-13T18:58:49.823Z,94909.78
2024-04-13T19:01:16.746Z,94915.31
2024-04-13T19:03:43.740Z,94917.72
2024-04-13T19:06:11.195Z,94911.09
2024-04-13T19:08:38.092Z,94917.69
2024-04-13T19:11:05.295Z,94922.25
2024-04-13T19:13:32.240Z,94919.22
2024-04-13T19:16:07.866Z,94916.84
2024-04-13T19:18:37.659Z,94922.72
2024-04-13T19:21:05.526Z,94921.41
2024-04-13T19:23:32.960Z,94931.13
2024-04-13T19:26:02.027Z,94917.91
2024-04-13T19:28:29.387Z,94927.19
2024-04-13T19:30:56.379Z,94926.41
2024-04-13T19:33:24.237Z,94925.19
2024-04-13T19:35:51.378Z,94928.84
2024-04-13T19:38:18.537Z,94928.78
2024-04-13T19:40:51.997Z,94924.53
2024-04-13T19:43:19.941Z,94926.00
2024-04-13T19:45:47.679Z,94928.81
2024-04-13T19:48:14.614Z,94941.97
2024-04-13T19:50:41.425Z,94941.59
2024-04-13T19:53:08.449Z,94943.09
2024-04-13T19:55:35.245Z,94941.63
2024-04-13T19:58:02.046Z,94942.91
2024-04-13T20:00:29.035Z,94937.78
2024-04-13T20:02:55.852Z,94946.03
2024-04-13T20:05:22.612Z,94947.63
2024-04-13T20:07:49.330Z,94945.97
2024-04-13T20:10:19.348Z,94938.56
2024-04-13T20:12:48.017Z,94941.69
2024-04-13T20:15:33.887Z,94942.13
2024-04-13T20:18:19.944Z,94944.84
2024-04-13T20:20:46.899Z,94942.50
2024-04-13T20:23:13.686Z,94940.22
2024-04-13T20:25:41.086Z,94948.38
2024-04-13T20:28:07.881Z,94947.97
2024-04-13T20:30:34.608Z,94948.78
2024-04-13T20:33:01.406Z,94946.84
2024-04-13T20:35:28.125Z,94954.19
2024-04-13T20:37:55.315Z,94952.66
2024-04-13T20:40:22.266Z,94953.41
2024-04-13T20:42:49.052Z,94953.81
2024-04-13T20:45:16.917Z,94958.47
2024-04-13T20:47:43.692Z,94955.75
2024-04-13T20:50:10.499Z,94962.34
2024-04-13T20:52:52.546Z,94953.44
2024-04-13T20:55:24.126Z,94969.16
2024-04-13T20:57:51.440Z,94958.06
2024-04-13T21:00:18.425Z,94960.31
2024-04-13T21:02:45.555Z,94948.75
2024-04-13T21:05:12.624Z,94952.25
2024-04-13T21:07:39.333Z,94954.22
2024-04-13T21:10:06.506Z,94951.88
2024-04-13T21:12:33.288Z,94950.69
2024-04-13T21:15:00.059Z,94947.22
2024-04-13T21:17:26.898Z,94950.72
2024-04-13T21:19:53.741Z,94949.53
2024-04-13T21:22:20.592Z,94943.34
2024-04-13T21:24:47.402Z,94948.00
2024-04-13T21:27:14.814Z,94944.13
2024-04-13T21:29:41.707Z,94940.25
2024-04-13T21:32:09.572Z,94944.09
2024-04-13T21:34:36.393Z,94942.16
2024-04-13T21:37:04.116Z,94944.72
2024-04-13T21:39:30.979Z,94946.50
2024-04-13T21:41:57.770Z,94947.28
2024-04-13T21:44:24.517Z,94953.00
2024-04-13T21:46:52.442Z,94955.72
2024-04-13T21:49:19.301Z,94954.63
2024-04-13T21:51:46.394Z,94944.44
2024-04-13T21:54:13.373Z,94951.94
2024-04-13T21:56:43.304Z,94953.41
2024-04-13T21:59:10.085Z,94938.06
2024-04-13T22:01:36.958Z,94936.91
2024-04-13T22:04:05.366Z,94924.94
2024-04-13T22:06:32.255Z,94927.66
2024-04-13T22:09:00.488Z,94929.22
2024-04-13T22:11:27.547Z,94927.34
2024-04-13T22:13:54.304Z,94915.34
2024-04-13T22:16:22.470Z,94926.16
2024-04-13T22:18:49.566Z,94921.25
2024-04-13T22:21:16.554Z,94925.66
2024-04-13T22:23:43.738Z,94921.38
2024-04-13T22:26:10.545Z,94934.75
2024-04-13T22:28:37.391Z,94936.03
2024-04-13T22:31:04.667Z,94936.03
2024-04-13T22:33:31.733Z,94924.81
2024-04-13T22:35:58.641Z,94918.28
2024-04-13T22:38:25.420Z,94927.56
2024-04-13T22:40:52.164Z,94928.84
2024-04-13T22:43:19.360Z,94938.28
2024-04-13T22:45:46.301Z,94927.59
2024-04-13T22:48:13.265Z,94929.16
2024-04-13T22:50:40.086Z,94930.69
2024-04-13T22:53:06.994Z,94932.19
2024-04-13T22:55:33.747Z,94932.19
2024-04-13T22:58:00.604Z,94929.16
2024-04-13T23:00:27.517Z,94928.38
2024-04-13T23:02:54.528Z,94920.84
2024-04-13T23:05:21.636Z,94918.94
2024-04-13T23:07:48.576Z,94915.22
2024-04-13T23:10:15.455Z,94918.91
2024-04-13T23:12:42.185Z,94916.38
2024-04-13T23:15:09.377Z,94923.63
2024-04-13T23:17:36.508Z,94920.56
2024-04-13T23:20:03.779Z,94921.69
2024-04-13T23:22:30.498Z,94925.88
2024-04-13T23:24:57.260Z,94919.03
2024-04-13T23:27:24.152Z,94918.94
2024-04-13T23:29:50.877Z,94923.25
2024-04-13T23:32:18.395Z,94919.03
2024-04-13T23:34:45.309Z,94916.75
2024-04-13T23:37:12.068Z,94918.28
2024-04-13T23:39:38.835Z,94923.16
2024-04-13T23:42:05.854Z,94920.25
2024-04-13T23:44:32.524Z,94926.34
2024-04-13T23:46:59.397Z,94923.06
2024-04-13T23:49:26.222Z,94915.84
2024-04-13T23:51:53.080Z,94910.00
2024-04-13T23:54:19.930Z,94917.78
2024-04-13T23:56:46.786Z,94913.50
2024-04-13T23:59:14.131Z,94925.88
